Terminal Aerodrome Forecast
Issued by NWS Omaha/Valley, NE

Home | Current Version | Previous Version | Graphics & Text | Print | Product List | Glossary On
Versions: 1 2 3 4 5 6 7 8 9 10 11 12 13 14 15 16 17 18 19 20 21 22 23 24 25 26 27 28 29 30 31 32 33 34 35 36 37 38 39 40 41
000
FTUS43 KOAX 172320
TAFOFK
TAF
KOFK 172320Z 1800/1824 06007KT P6SM VCSH BKN050
     FM180400 06008KT P6SM BKN050 OVC080
      TEMPO 1804/1808 4SM -SHRA BR BKN025
     FM180800 08006KT 6SM BR BKN025
     FM181200 11007KT 4SM -SHRA BR OVC015
     FM181700 15010KT P6SM SCT015 BKN100=

USA.gov is the U.S. government's official web portal to all federal, state and local government web resources and services.